createdAt,value
2023-03-30T00:00:09.325Z,5.70
2023-03-30T00:02:36.073Z,4.87
2023-03-30T00:05:03.134Z,4.43
2023-03-30T00:07:31.635Z,4.80
2023-03-30T00:09:58.586Z,5.37
2023-03-30T00:12:25.347Z,5.10
2023-03-30T00:14:52.103Z,5.57
2023-03-30T00:17:18.921Z,5.00
2023-03-30T00:19:45.711Z,4.90
2023-03-30T00:22:12.413Z,5.10
2023-03-30T00:24:40.429Z,4.80
2023-03-30T00:27:07.769Z,4.70
2023-03-30T00:29:34.598Z,3.80
2023-03-30T00:32:01.471Z,5.20
2023-03-30T00:34:28.629Z,4.90
2023-03-30T00:36:55.326Z,4.70
2023-03-30T00:39:22.069Z,4.90
2023-03-30T00:41:50.114Z,4.53
2023-03-30T00:44:54.257Z,5.60
2023-03-30T00:47:21.819Z,4.23
2023-03-30T00:49:48.843Z,4.50
2023-03-30T00:52:15.986Z,4.93
2023-03-30T00:54:42.653Z,4.40
2023-03-30T00:57:10.823Z,4.70
2023-03-30T00:59:37.742Z,5.43
2023-03-30T01:02:05.066Z,4.13
2023-03-30T01:04:31.905Z,4.53
2023-03-30T01:06:59.179Z,4.73
2023-03-30T01:09:26.122Z,4.60
2023-03-30T01:11:52.850Z,4.00
2023-03-30T01:14:21.092Z,5.23
2023-03-30T01:16:55.568Z,4.93
2023-03-30T01:19:48.260Z,4.70
2023-03-30T01:22:36.492Z,5.10
2023-03-30T01:25:36.932Z,5.60
2023-03-30T01:28:27.689Z,4.70
2023-03-30T01:31:11.359Z,4.63
2023-03-30T01:34:10.760Z,4.60
2023-03-30T01:36:54.875Z,5.50
2023-03-30T01:39:42.966Z,4.07
2023-03-30T01:42:18.047Z,5.20
2023-03-30T01:44:51.801Z,4.73
2023-03-30T01:47:23.461Z,4.80
2023-03-30T01:49:57.628Z,4.43
2023-03-30T01:52:28.184Z,5.93
2023-03-30T01:55:00.843Z,4.40
2023-03-30T01:57:31.327Z,5.13
2023-03-30T02:00:02.673Z,4.80
2023-03-30T02:02:31.395Z,4.60
2023-03-30T02:05:00.961Z,4.30
2023-03-30T02:07:31.542Z,4.90
2023-03-30T02:10:03.508Z,4.30
2023-03-30T02:12:31.269Z,4.63
2023-03-30T02:15:01.518Z,4.80
2023-03-30T02:17:30.256Z,4.20
2023-03-30T02:19:57.453Z,4.93
2023-03-30T02:22:25.744Z,3.90
2023-03-30T02:24:55.104Z,4.53
2023-03-30T02:27:25.068Z,4.80
2023-03-30T02:29:51.803Z,4.83
2023-03-30T02:32:21.468Z,5.57
2023-03-30T02:35:03.527Z,5.07
2023-03-30T02:37:48.011Z,3.77
2023-03-30T02:40:24.453Z,4.60
2023-03-30T02:43:03.907Z,4.47
2023-03-30T02:45:43.192Z,4.73
2023-03-30T02:48:21.303Z,5.10
2023-03-30T02:50:58.767Z,4.60
2023-03-30T02:53:32.451Z,6.17
2023-03-30T02:56:02.812Z,4.67
2023-03-30T02:58:37.172Z,4.83
2023-03-30T03:01:08.816Z,4.70
2023-03-30T03:03:40.422Z,4.30
2023-03-30T03:06:08.075Z,4.70
2023-03-30T03:08:37.059Z,4.50
2023-03-30T03:11:04.442Z,5.80
2023-03-30T03:13:32.735Z,4.60
2023-03-30T03:16:00.634Z,4.13
2023-03-30T03:18:28.989Z,4.57
2023-03-30T03:20:55.744Z,6.10
2023-03-30T03:23:22.444Z,5.30
2023-03-30T03:25:49.183Z,4.17
2023-03-30T03:28:15.837Z,4.50
2023-03-30T03:30:43.971Z,5.00
2023-03-30T03:33:10.751Z,5.20
2023-03-30T03:35:37.510Z,4.53
2023-03-30T03:38:04.224Z,5.00
2023-03-30T03:40:30.936Z,5.17
2023-03-30T03:42:57.706Z,4.97
2023-03-30T03:45:24.395Z,6.23
2023-03-30T03:47:52.612Z,5.30
2023-03-30T03:50:19.498Z,4.70
2023-03-30T03:52:46.227Z,5.20
2023-03-30T03:55:14.928Z,5.33
2023-03-30T03:57:41.613Z,5.17
2023-03-30T04:00:09.491Z,4.30
2023-03-30T04:02:36.307Z,4.20
2023-03-30T04:05:04.937Z,4.60
2023-03-30T04:07:31.632Z,5.10
2023-03-30T04:09:58.330Z,4.40
2023-03-30T04:12:25.063Z,4.90
2023-03-30T04:14:52.022Z,4.57
2023-03-30T04:17:18.807Z,3.63
2023-03-30T04:19:45.564Z,4.33
2023-03-30T04:22:13.615Z,4.40
2023-03-30T04:24:40.497Z,4.90
2023-03-30T04:27:07.294Z,4.13
2023-03-30T04:29:34.059Z,4.03
2023-03-30T04:32:00.810Z,5.57
2023-03-30T04:34:27.547Z,5.17
2023-03-30T04:36:54.252Z,4.80
2023-03-30T04:39:22.289Z,4.43
2023-03-30T04:41:49.029Z,4.00
2023-03-30T04:44:15.661Z,4.67
2023-03-30T04:46:42.382Z,4.97
2023-03-30T04:49:09.095Z,5.53
2023-03-30T04:51:35.863Z,5.00
2023-03-30T04:54:02.673Z,5.20
2023-03-30T04:56:30.799Z,5.40
2023-03-30T04:58:57.485Z,4.80
2023-03-30T05:01:24.256Z,4.50
2023-03-30T05:03:51.188Z,4.23
2023-03-30T05:06:18.007Z,4.10
2023-03-30T05:08:44.652Z,4.60
2023-03-30T05:11:11.352Z,5.03
2023-03-30T05:13:39.422Z,4.13
2023-03-30T05:16:07.295Z,4.70
2023-03-30T05:18:34.007Z,4.87
2023-03-30T05:21:00.746Z,4.07
2023-03-30T05:23:27.483Z,4.40
2023-03-30T05:25:54.439Z,5.60
2023-03-30T05:28:22.224Z,3.60
2023-03-30T05:30:55.068Z,4.13
2023-03-30T05:33:22.732Z,4.07
2023-03-30T05:35:49.840Z,3.97
2023-03-30T05:38:16.765Z,5.37
2023-03-30T05:40:43.835Z,4.83
2023-03-30T05:43:10.665Z,4.60
2023-03-30T05:45:37.520Z,5.60
2023-03-30T05:48:06.358Z,4.03
2023-03-30T05:50:33.060Z,4.33
2023-03-30T05:52:59.780Z,4.27
2023-03-30T05:55:26.466Z,3.83
2023-03-30T05:57:53.246Z,4.10
2023-03-30T06:00:21.224Z,3.80
2023-03-30T06:02:47.972Z,3.90
2023-03-30T06:05:16.352Z,3.90
2023-03-30T06:07:43.128Z,4.23
2023-03-30T06:10:10.467Z,3.50
2023-03-30T06:12:37.302Z,3.40
2023-03-30T06:15:04.466Z,3.70
2023-03-30T06:17:31.261Z,3.63
2023-03-30T06:19:57.950Z,4.60
2023-03-30T06:22:26.174Z,3.53
2023-03-30T06:24:52.903Z,3.40
2023-03-30T06:27:19.578Z,3.77
2023-03-30T06:29:46.269Z,3.77
2023-03-30T06:32:12.993Z,3.13
2023-03-30T06:34:39.726Z,3.20
2023-03-30T06:37:07.464Z,3.63
2023-03-30T06:39:35.654Z,3.90
2023-03-30T06:42:02.339Z,3.50
2023-03-30T06:44:29.109Z,4.20
2023-03-30T06:46:55.785Z,4.00
2023-03-30T06:49:22.553Z,5.37
2023-03-30T06:51:49.285Z,4.10
2023-03-30T06:54:15.984Z,4.40
2023-03-30T06:56:44.057Z,4.23
2023-03-30T06:59:10.861Z,3.73
2023-03-30T07:01:37.661Z,4.33
2023-03-30T07:04:04.672Z,4.73
2023-03-30T07:06:31.374Z,4.10
2023-03-30T07:08:58.100Z,4.60
2023-03-30T07:11:24.804Z,3.97
2023-03-30T07:13:52.798Z,3.20
2023-03-30T07:16:19.570Z,4.20
2023-03-30T07:18:46.359Z,3.80
2023-03-30T07:21:13.092Z,3.20
2023-03-30T07:23:39.959Z,4.20
2023-03-30T07:26:06.698Z,3.00
2023-03-30T07:28:33.404Z,3.37
2023-03-30T07:31:06.039Z,3.40
2023-03-30T07:33:33.486Z,2.90
2023-03-30T07:36:00.403Z,3.50
2023-03-30T07:38:27.283Z,3.77
2023-03-30T07:40:54.113Z,3.13
2023-03-30T07:43:20.868Z,2.70
2023-03-30T07:45:47.660Z,3.87
2023-03-30T07:48:15.837Z,3.10
2023-03-30T07:50:42.514Z,2.90
2023-03-30T07:53:09.220Z,3.10
2023-03-30T07:55:36.017Z,3.17
2023-03-30T07:58:02.812Z,3.20
2023-03-30T08:00:29.609Z,3.30
2023-03-30T08:02:56.354Z,3.53
2023-03-30T08:05:24.519Z,3.47
2023-03-30T08:07:51.257Z,4.50
2023-03-30T08:10:18.169Z,3.47
2023-03-30T08:12:44.913Z,3.80
2023-03-30T08:15:11.989Z,3.57
2023-03-30T08:17:38.683Z,3.30
2023-03-30T08:20:06.737Z,2.93
2023-03-30T08:22:34.806Z,2.87
2023-03-30T08:25:01.577Z,4.20
2023-03-30T08:27:28.333Z,3.40
2023-03-30T08:29:55.055Z,3.43
2023-03-30T08:32:21.751Z,3.50
2023-03-30T08:34:48.513Z,3.90
2023-03-30T08:37:15.450Z,3.50
2023-03-30T08:39:43.531Z,3.90
2023-03-30T08:42:31.784Z,3.60
2023-03-30T08:44:59.288Z,3.80
2023-03-30T08:47:32.439Z,3.40
2023-03-30T08:50:05.691Z,3.67
2023-03-30T08:52:32.736Z,3.60
2023-03-30T08:55:01.908Z,3.10
2023-03-30T08:57:39.352Z,3.27
2023-03-30T09:00:16.975Z,3.03
2023-03-30T09:02:46.733Z,2.67
2023-03-30T09:05:20.220Z,4.27
2023-03-30T09:07:55.626Z,3.47
2023-03-30T09:10:26.736Z,3.30
2023-03-30T09:12:57.360Z,3.60
2023-03-30T09:15:30.516Z,3.10
2023-03-30T09:18:04.905Z,3.87
2023-03-30T09:20:36.037Z,3.80
2023-03-30T09:23:03.980Z,3.07
2023-03-30T09:25:38.865Z,3.70
2023-03-30T09:28:12.506Z,3.03
2023-03-30T09:30:41.109Z,3.23
2023-03-30T09:33:19.077Z,3.47
2023-03-30T09:36:02.091Z,3.83
2023-03-30T09:38:30.919Z,3.30
2023-03-30T09:41:07.674Z,4.10
2023-03-30T09:43:38.419Z,3.70
2023-03-30T09:46:07.344Z,4.43
2023-03-30T09:48:39.292Z,3.60
2023-03-30T09:51:19.107Z,3.90
2023-03-30T09:53:48.077Z,4.20
2023-03-30T09:56:26.003Z,3.30
2023-03-30T09:58:52.684Z,3.77
2023-03-30T10:01:20.852Z,4.33
2023-03-30T10:04:07.627Z,3.20
2023-03-30T10:06:38.039Z,3.80
2023-03-30T10:09:09.833Z,3.50
2023-03-30T10:11:41.163Z,4.00
2023-03-30T10:14:22.386Z,3.77
2023-03-30T10:16:49.225Z,3.77
2023-03-30T10:19:20.065Z,4.03
2023-03-30T10:21:47.185Z,3.23
2023-03-30T10:24:20.600Z,3.33
2023-03-30T10:26:52.554Z,3.40
2023-03-30T10:29:21.786Z,2.93
2023-03-30T10:31:52.165Z,3.20
2023-03-30T10:34:23.379Z,3.70
2023-03-30T10:36:54.634Z,3.03
2023-03-30T10:39:25.489Z,4.03
2023-03-30T10:41:54.544Z,3.17
2023-03-30T10:44:25.027Z,2.70
2023-03-30T10:46:55.861Z,3.30
2023-03-30T10:49:35.202Z,2.97
2023-03-30T10:52:12.602Z,3.50
2023-03-30T10:54:43.639Z,3.70
2023-03-30T10:57:16.663Z,3.57
2023-03-30T11:00:09.680Z,3.40
2023-03-30T11:02:49.586Z,4.47
2023-03-30T11:05:19.160Z,3.97
2023-03-30T11:07:50.036Z,4.13
2023-03-30T11:10:20.421Z,3.20
2023-03-30T11:12:54.126Z,4.00
2023-03-30T11:15:26.632Z,4.07
2023-03-30T11:18:01.202Z,4.03
2023-03-30T11:20:31.649Z,3.50
2023-03-30T11:23:10.309Z,4.03
2023-03-30T11:25:46.334Z,3.40
2023-03-30T11:28:22.565Z,3.53
2023-03-30T11:30:54.613Z,3.73
2023-03-30T11:33:29.009Z,4.00
2023-03-30T11:36:01.444Z,3.80
2023-03-30T11:38:33.991Z,3.63
2023-03-30T11:41:05.815Z,3.40
2023-03-30T11:43:33.998Z,3.57
2023-03-30T11:46:05.639Z,3.10
2023-03-30T11:48:59.245Z,3.87
2023-03-30T11:51:49.603Z,2.80
2023-03-30T11:55:02.964Z,2.90
2023-03-30T11:57:36.862Z,3.00
2023-03-30T12:00:23.926Z,2.73
2023-03-30T12:03:00.988Z,3.30
2023-03-30T12:05:32.029Z,2.40
2023-03-30T12:08:07.266Z,2.40
2023-03-30T12:10:38.927Z,2.90
2023-03-30T12:13:05.997Z,2.73
2023-03-30T12:15:43.687Z,2.33
2023-03-30T12:18:19.244Z,2.70
2023-03-30T12:20:53.239Z,3.00
2023-03-30T12:23:31.169Z,3.57
2023-03-30T12:26:24.500Z,3.00
2023-03-30T12:29:20.764Z,3.33
2023-03-30T12:32:05.685Z,3.50
2023-03-30T12:34:33.886Z,4.13
2023-03-30T12:37:06.672Z,4.27
2023-03-30T12:39:38.951Z,4.27
2023-03-30T12:42:10.275Z,4.60
2023-03-30T12:44:49.681Z,4.43
2023-03-30T12:47:32.764Z,2.80
2023-03-30T12:50:22.942Z,3.23
2023-03-30T12:53:01.837Z,2.83
2023-03-30T12:55:42.856Z,3.27
2023-03-30T12:58:51.452Z,2.30
2023-03-30T13:01:45.461Z,2.53
2023-03-30T13:04:17.870Z,2.53
2023-03-30T13:06:51.997Z,2.10
2023-03-30T13:09:50.630Z,2.53
2023-03-30T13:12:42.306Z,2.03
2023-03-30T13:15:39.435Z,2.60
2023-03-30T13:18:31.406Z,2.23
2023-03-30T13:21:16.701Z,1.90
2023-03-30T13:23:44.685Z,2.20
2023-03-30T13:26:33.761Z,2.13
2023-03-30T13:29:07.934Z,1.90
2023-03-30T13:31:45.767Z,2.20
2023-03-30T13:34:23.784Z,2.03
2023-03-30T13:37:00.318Z,1.83
2023-03-30T13:39:32.269Z,1.57
2023-03-30T13:42:15.038Z,1.50
2023-03-30T13:44:53.952Z,2.70
2023-03-30T13:47:37.397Z,2.03
2023-03-30T13:50:12.544Z,2.67
2023-03-30T13:52:44.932Z,2.70
2023-03-30T13:55:18.589Z,2.33
2023-03-30T13:57:45.440Z,2.40
2023-03-30T14:00:27.049Z,2.27
2023-03-30T14:02:53.782Z,2.30
2023-03-30T14:05:23.292Z,2.57
2023-03-30T14:07:55.560Z,1.83
2023-03-30T14:10:22.326Z,1.90
2023-03-30T14:12:53.616Z,1.83
2023-03-30T14:15:23.492Z,2.07
2023-03-30T14:17:52.211Z,1.57
2023-03-30T14:20:37.732Z,2.33
2023-03-30T14:23:06.415Z,2.27
2023-03-30T14:25:38.244Z,2.23
2023-03-30T14:28:13.294Z,2.00
2023-03-30T14:30:49.568Z,2.13
2023-03-30T14:33:16.320Z,2.23
2023-03-30T14:35:45.429Z,2.10
2023-03-30T14:38:20.247Z,2.33
2023-03-30T14:40:47.299Z,2.43
2023-03-30T14:43:15.701Z,2.23
2023-03-30T14:45:43.184Z,2.03
2023-03-30T14:48:20.183Z,2.60
2023-03-30T14:50:47.049Z,2.10
2023-03-30T14:53:18.947Z,1.90
2023-03-30T14:55:45.962Z,2.70
2023-03-30T14:58:14.661Z,1.90
2023-03-30T15:00:42.488Z,1.70
2023-03-30T15:03:19.693Z,2.20
2023-03-30T15:05:53.595Z,2.70
2023-03-30T15:08:25.771Z,2.30
2023-03-30T15:10:54.721Z,1.87
2023-03-30T15:13:25.892Z,2.57
2023-03-30T15:15:54.422Z,1.90
2023-03-30T15:18:25.297Z,2.20
2023-03-30T15:20:52.731Z,2.30
2023-03-30T15:23:21.181Z,2.60
2023-03-30T15:25:48.662Z,2.40
2023-03-30T15:28:17.019Z,3.20
2023-03-30T15:30:45.372Z,2.77
2023-03-30T15:33:21.496Z,2.40
2023-03-30T15:35:50.636Z,2.47
2023-03-30T15:38:18.137Z,2.10
2023-03-30T15:40:47.635Z,2.10
2023-03-30T15:43:17.337Z,1.80
2023-03-30T15:45:50.416Z,1.90
2023-03-30T15:48:20.846Z,1.63
2023-03-30T15:50:52.739Z,2.03
2023-03-30T15:53:28.847Z,1.90
2023-03-30T15:55:59.101Z,2.20
2023-03-30T15:58:27.663Z,2.60
2023-03-30T16:00:55.746Z,2.00
2023-03-30T16:03:36.694Z,2.33
2023-03-30T16:06:03.477Z,2.17
2023-03-30T16:08:30.220Z,1.47
2023-03-30T16:10:58.554Z,1.70
2023-03-30T16:13:25.395Z,1.73
2023-03-30T16:15:53.413Z,1.80
2023-03-30T16:18:20.149Z,1.70
2023-03-30T16:20:46.968Z,1.83
2023-03-30T16:23:13.769Z,1.93
2023-03-30T16:25:45.222Z,1.80
2023-03-30T16:28:16.202Z,1.67
2023-03-30T16:30:44.971Z,2.23
2023-03-30T16:33:11.813Z,1.93
2023-03-30T16:35:38.571Z,1.60
2023-03-30T16:38:05.311Z,1.90
2023-03-30T16:40:35.900Z,1.70
2023-03-30T16:43:03.087Z,1.93
2023-03-30T16:45:32.254Z,1.93
2023-03-30T16:47:59.411Z,2.07
2023-03-30T16:50:33.051Z,2.23
2023-03-30T16:52:59.788Z,1.80
2023-03-30T16:55:26.532Z,3.20
2023-03-30T16:57:53.267Z,2.47
2023-03-30T17:00:22.894Z,2.70
2023-03-30T17:02:50.997Z,2.30
2023-03-30T17:05:18.032Z,2.40
2023-03-30T17:07:45.091Z,2.33
2023-03-30T17:10:24.373Z,2.20
2023-03-30T17:12:51.447Z,2.73
2023-03-30T17:15:18.581Z,2.20
2023-03-30T17:17:45.607Z,2.57
2023-03-30T17:20:26.108Z,3.00
2023-03-30T17:22:53.050Z,2.23
2023-03-30T17:25:20.908Z,2.00
2023-03-30T17:27:48.021Z,1.10
2023-03-30T17:30:21.755Z,1.00
2023-03-30T17:32:48.564Z,1.43
2023-03-30T17:35:15.728Z,1.20
2023-03-30T17:37:44.029Z,0.80
2023-03-30T17:40:20.101Z,1.07
2023-03-30T17:42:47.349Z,1.33
2023-03-30T17:45:16.243Z,1.20
2023-03-30T17:47:51.504Z,0.90
2023-03-30T17:50:46.612Z,1.83
2023-03-30T17:56:18.447Z,1.50
2023-03-30T17:58:45.141Z,1.83
2023-03-30T18:01:11.874Z,1.70
2023-03-30T18:03:39.481Z,1.60
2023-03-30T18:06:12.545Z,1.53
2023-03-30T18:08:40.615Z,1.80
2023-03-30T18:11:07.568Z,2.50
2023-03-30T18:13:58.508Z,2.40
2023-03-30T18:16:58.462Z,1.67
2023-03-30T18:19:32.502Z,1.73
2023-03-30T18:21:59.311Z,2.40
2023-03-30T18:24:27.347Z,2.57
2023-03-30T18:26:54.105Z,1.80
2023-03-30T18:29:20.905Z,1.90
2023-03-30T18:31:47.817Z,2.00
2023-03-30T18:34:14.667Z,2.63
2023-03-30T18:36:42.064Z,2.43
2023-03-30T18:39:10.569Z,2.03
2023-03-30T18:41:38.627Z,1.90
2023-03-30T18:44:05.777Z,2.50
2023-03-30T18:46:32.665Z,1.47
2023-03-30T18:48:59.537Z,2.10
2023-03-30T18:51:26.292Z,2.73
2023-03-30T18:53:52.945Z,2.47
2023-03-30T18:56:20.052Z,2.67
2023-03-30T18:58:48.324Z,2.70
2023-03-30T19:01:15.009Z,2.60
2023-03-30T19:03:42.236Z,2.10
2023-03-30T19:06:11.772Z,2.13
2023-03-30T19:08:38.408Z,1.90
2023-03-30T19:11:05.115Z,1.87
2023-03-30T19:13:33.839Z,2.13
2023-03-30T19:16:01.913Z,1.90
2023-03-30T19:18:28.659Z,2.40
2023-03-30T19:20:55.464Z,2.07
2023-03-30T19:23:22.230Z,2.63
2023-03-30T19:25:48.975Z,2.20
2023-03-30T19:28:16.019Z,2.60
2023-03-30T19:30:43.477Z,2.20
2023-03-30T19:33:14.012Z,2.10
2023-03-30T19:35:41.208Z,1.80
2023-03-30T19:38:08.046Z,2.27
2023-03-30T19:40:36.329Z,2.47
2023-03-30T19:43:02.982Z,1.93
2023-03-30T19:45:29.634Z,1.93
2023-03-30T19:47:56.397Z,1.90
2023-03-30T19:50:24.400Z,2.33
2023-03-30T19:52:51.719Z,2.00
2023-03-30T19:55:19.628Z,2.87
2023-03-30T19:57:46.795Z,2.00
2023-03-30T20:00:16.231Z,2.47
2023-03-30T20:02:44.529Z,1.90
2023-03-30T20:05:11.838Z,2.43
2023-03-30T20:07:40.279Z,2.73
2023-03-30T20:10:10.111Z,2.20
2023-03-30T20:12:37.216Z,2.03
2023-03-30T20:15:04.697Z,2.17
2023-03-30T20:17:31.706Z,2.30
2023-03-30T20:19:58.517Z,2.33
2023-03-30T20:22:25.334Z,1.77
2023-03-30T20:24:53.535Z,2.20
2023-03-30T20:27:20.246Z,1.90
2023-03-30T20:29:46.877Z,1.73
2023-03-30T20:32:13.772Z,2.23
2023-03-30T20:34:40.443Z,1.80
2023-03-30T20:37:07.129Z,1.40
2023-03-30T20:39:33.829Z,2.20
2023-03-30T20:42:01.930Z,1.93
2023-03-30T20:44:28.671Z,2.20
2023-03-30T20:46:55.770Z,2.50
2023-03-30T20:49:22.641Z,1.67
2023-03-30T20:51:49.416Z,2.30
2023-03-30T20:54:16.408Z,2.77
2023-03-30T20:56:43.197Z,1.70
2023-03-30T20:59:11.406Z,2.20
2023-03-30T21:01:38.292Z,2.07
2023-03-30T21:04:05.280Z,1.50
2023-03-30T21:06:32.976Z,1.80
2023-03-30T21:09:01.447Z,1.87
2023-03-30T21:11:30.391Z,1.67
2023-03-30T21:13:57.266Z,2.23
2023-03-30T21:16:25.442Z,2.00
2023-03-30T21:18:52.606Z,2.13
2023-03-30T21:21:19.539Z,2.37
2023-03-30T21:23:46.534Z,1.97
2023-03-30T21:26:14.157Z,1.70
2023-03-30T21:28:41.007Z,1.40
2023-03-30T21:31:09.577Z,1.77
2023-03-30T21:33:38.276Z,2.00
2023-03-30T21:36:05.769Z,2.50
2023-03-30T21:38:33.395Z,1.70
2023-03-30T21:41:02.051Z,2.40
2023-03-30T21:43:30.064Z,2.00
2023-03-30T21:45:58.865Z,1.50
2023-03-30T21:48:29.523Z,1.90
2023-03-30T21:51:03.528Z,1.63
2023-03-30T21:53:31.811Z,2.23
2023-03-30T21:55:59.578Z,2.10
2023-03-30T21:58:26.872Z,1.93
2023-03-30T22:01:08.579Z,1.87
2023-03-30T22:03:38.713Z,2.07
2023-03-30T22:06:08.719Z,1.83
2023-03-30T22:08:35.809Z,1.70
2023-03-30T22:11:04.847Z,1.90
2023-03-30T22:13:32.145Z,2.37
2023-03-30T22:16:00.755Z,1.47
2023-03-30T22:18:28.300Z,1.83
2023-03-30T22:20:58.533Z,1.73
2023-03-30T22:23:27.090Z,1.57
2023-03-30T22:25:53.756Z,1.83
2023-03-30T22:28:21.033Z,2.07
2023-03-30T22:30:47.675Z,1.83
2023-03-30T22:33:15.077Z,1.80
2023-03-30T22:35:43.445Z,1.67
2023-03-30T22:38:11.300Z,1.83
2023-03-30T22:40:39.627Z,2.07
2023-03-30T22:43:06.369Z,1.87
2023-03-30T22:45:33.184Z,2.23
2023-03-30T22:48:00.142Z,1.87
2023-03-30T22:50:28.378Z,1.63
2023-03-30T22:52:55.459Z,1.90
2023-03-30T22:55:22.438Z,1.80
2023-03-30T22:57:51.968Z,1.53
2023-03-30T23:00:19.472Z,1.47
2023-03-30T23:02:47.588Z,1.70
2023-03-30T23:05:14.452Z,1.50
2023-03-30T23:07:43.160Z,2.03
2023-03-30T23:10:12.586Z,2.40
2023-03-30T23:12:39.540Z,1.90
2023-03-30T23:15:08.710Z,2.00
2023-03-30T23:17:35.906Z,2.00
2023-03-30T23:20:03.320Z,1.77
2023-03-30T23:22:30.271Z,2.37
2023-03-30T23:24:57.015Z,1.83
2023-03-30T23:27:23.704Z,1.40
2023-03-30T23:29:50.565Z,2.00
2023-03-30T23:32:18.747Z,2.33
2023-03-30T23:34:45.582Z,1.70
2023-03-30T23:37:12.544Z,1.50
2023-03-30T23:39:39.271Z,1.70
2023-03-30T23:42:06.087Z,2.10
2023-03-30T23:44:32.799Z,1.60
2023-03-30T23:46:59.549Z,2.33
2023-03-30T23:49:27.881Z,2.17
2023-03-30T23:51:54.665Z,2.03
2023-03-30T23:54:21.705Z,1.93
2023-03-30T23:56:48.659Z,1.87
2023-03-30T23:59:15.676Z,1.53
